首页
METAR-TAF:

METAR-TAF

机场 :

卡斯卡韋爾, 巴拉那州, 巴西

纬度: 25-00-08S, 经度: 53-30-07W, 海拔: 754米

当前天气观测

该预报发布于8小时和6分钟前的22:00 UTC
风速6节,风向南转西南
温度 8°C
湿度 100%
气压 1024 hPa
能見度: 0500
阴天层高于100英尺
雾,

METAR: SBCA 142200Z 21006KT 0500 FG OVC001 08/08 Q1024

时间: 03:06 (06:06 UTC)


TAF: 丢失

超过4000个机场的气象观测和天气预报(METAR&TAF报告)。

可查询的气象台以黄色和红色小点在地图上表示。

将鼠标移到小点上方,可查看气象台名称。

然后点击查看天气观测和预报。

如需切换地图:点击带黑十字的绿色按钮放大地图;点击带横线的绿色按钮缩小地图;或者点击绿色箭头查看邻近地区的地图。


METAR-TAF: